sensor_id;sensor_type;location;lat;lon;timestamp;P1;durP1;ratioP1;P2;durP2;ratioP2
6149;SDS011;3106;42.670;23.318;2022-08-19T00:01:58;11.00;;;8.30;;
6149;SDS011;3106;42.670;23.318;2022-08-19T00:04:26;9.83;;;7.67;;
6149;SDS011;3106;42.670;23.318;2022-08-19T00:06:57;11.83;;;8.60;;
6149;SDS011;3106;42.670;23.318;2022-08-19T00:09:25;14.93;;;7.10;;
6149;SDS011;3106;42.670;23.318;2022-08-19T00:11:53;15.23;;;8.50;;
6149;SDS011;3106;42.670;23.318;2022-08-19T00:14:22;12.20;;;8.23;;
6149;SDS011;3106;42.670;23.318;2022-08-19T00:16:52;16.87;;;8.30;;
6149;SDS011;3106;42.670;23.318;2022-08-19T00:19:23;11.70;;;8.60;;
6149;SDS011;3106;42.670;23.318;2022-08-19T00:21:50;11.63;;;7.93;;
6149;SDS011;3106;42.670;23.318;2022-08-19T00:24:18;11.87;;;8.30;;
6149;SDS011;3106;42.670;23.318;2022-08-19T00:26:46;18.00;;;9.00;;
6149;SDS011;3106;42.670;23.318;2022-08-19T00:29:17;11.83;;;7.97;;
6149;SDS011;3106;42.670;23.318;2022-08-19T00:31:46;10.80;;;8.20;;
6149;SDS011;3106;42.670;23.318;2022-08-19T00:34:15;11.43;;;8.97;;
6149;SDS011;3106;42.670;23.318;2022-08-19T00:36:44;13.53;;;8.30;;
6149;SDS011;3106;42.670;23.318;2022-08-19T00:39:11;12.00;;;8.50;;
6149;SDS011;3106;42.670;23.318;2022-08-19T00:41:40;19.70;;;9.90;;
6149;SDS011;3106;42.670;23.318;2022-08-19T00:44:09;19.90;;;9.30;;
6149;SDS011;3106;42.670;23.318;2022-08-19T00:46:39;11.47;;;8.83;;
6149;SDS011;3106;42.670;23.318;2022-08-19T00:49:10;16.10;;;9.50;;
6149;SDS011;3106;42.670;23.318;2022-08-19T00:51:41;12.30;;;8.60;;
6149;SDS011;3106;42.670;23.318;2022-08-19T00:54:13;13.27;;;7.80;;
6149;SDS011;3106;42.670;23.318;2022-08-19T00:56:41;15.17;;;9.00;;
6149;SDS011;3106;42.670;23.318;2022-08-19T00:59:09;14.63;;;9.17;;
6149;SDS011;3106;42.670;23.318;2022-08-19T01:01:37;12.10;;;9.30;;
6149;SDS011;3106;42.670;23.318;2022-08-19T01:04:06;13.40;;;7.93;;
6149;SDS011;3106;42.670;23.318;2022-08-19T01:06:34;10.90;;;8.23;;
6149;SDS011;3106;42.670;23.318;2022-08-19T01:09:06;13.60;;;10.20;;
6149;SDS011;3106;42.670;23.318;2022-08-19T01:11:39;15.90;;;8.47;;
6149;SDS011;3106;42.670;23.318;2022-08-19T01:14:10;12.77;;;8.53;;
6149;SDS011;3106;42.670;23.318;2022-08-19T01:16:38;11.17;;;8.67;;
6149;SDS011;3106;42.670;23.318;2022-08-19T01:19:09;25.63;;;9.37;;
6149;SDS011;3106;42.670;23.318;2022-08-19T01:21:45;11.90;;;9.07;;
6149;SDS011;3106;42.670;23.318;2022-08-19T01:24:24;22.00;;;10.10;;
6149;SDS011;3106;42.670;23.318;2022-08-19T01:26:53;13.10;;;8.97;;
6149;SDS011;3106;42.670;23.318;2022-08-19T01:29:20;16.50;;;9.37;;
6149;SDS011;3106;42.670;23.318;2022-08-19T01:31:48;14.90;;;9.50;;
6149;SDS011;3106;42.670;23.318;2022-08-19T01:34:18;15.73;;;9.93;;
6149;SDS011;3106;42.670;23.318;2022-08-19T01:36:47;16.90;;;9.37;;
6149;SDS011;3106;42.670;23.318;2022-08-19T01:39:15;18.77;;;9.73;;
6149;SDS011;3106;42.670;23.318;2022-08-19T01:41:46;13.03;;;9.10;;
6149;SDS011;3106;42.670;23.318;2022-08-19T01:44:14;14.37;;;8.93;;
6149;SDS011;3106;42.670;23.318;2022-08-19T01:46:42;12.47;;;9.30;;
6149;SDS011;3106;42.670;23.318;2022-08-19T01:49:10;14.50;;;9.80;;
6149;SDS011;3106;42.670;23.318;2022-08-19T01:51:37;17.90;;;9.23;;
6149;SDS011;3106;42.670;23.318;2022-08-19T01:54:05;17.83;;;9.73;;
6149;SDS011;3106;42.670;23.318;2022-08-19T01:56:32;17.07;;;10.13;;
6149;SDS011;3106;42.670;23.318;2022-08-19T01:59:16;13.90;;;8.60;;
6149;SDS011;3106;42.670;23.318;2022-08-19T02:01:45;14.73;;;9.00;;
6149;SDS011;3106;42.670;23.318;2022-08-19T02:04:12;11.40;;;8.90;;
6149;SDS011;3106;42.670;23.318;2022-08-19T02:06:40;15.50;;;8.60;;
6149;SDS011;3106;42.670;23.318;2022-08-19T02:09:08;16.53;;;10.17;;
6149;SDS011;3106;42.670;23.318;2022-08-19T02:11:37;16.00;;;10.60;;
6149;SDS011;3106;42.670;23.318;2022-08-19T02:14:04;13.73;;;9.60;;
6149;SDS011;3106;42.670;23.318;2022-08-19T02:16:35;15.60;;;9.70;;
6149;SDS011;3106;42.670;23.318;2022-08-19T02:19:03;13.50;;;9.30;;
6149;SDS011;3106;42.670;23.318;2022-08-19T02:21:31;13.30;;;9.53;;
6149;SDS011;3106;42.670;23.318;2022-08-19T02:23:59;14.63;;;8.90;;
6149;SDS011;3106;42.670;23.318;2022-08-19T02:26:26;18.07;;;10.20;;
6149;SDS011;3106;42.670;23.318;2022-08-19T02:28:53;18.03;;;9.60;;
6149;SDS011;3106;42.670;23.318;2022-08-19T02:31:22;13.17;;;8.00;;
6149;SDS011;3106;42.670;23.318;2022-08-19T02:33:55;14.60;;;8.73;;
6149;SDS011;3106;42.670;23.318;2022-08-19T02:36:23;14.67;;;9.30;;
6149;SDS011;3106;42.670;23.318;2022-08-19T02:38:51;14.80;;;8.80;;
6149;SDS011;3106;42.670;23.318;2022-08-19T02:41:19;15.57;;;10.00;;
6149;SDS011;3106;42.670;23.318;2022-08-19T02:43:48;12.57;;;9.60;;
6149;SDS011;3106;42.670;23.318;2022-08-19T02:46:17;12.70;;;8.23;;
6149;SDS011;3106;42.670;23.318;2022-08-19T02:48:47;16.13;;;8.93;;
6149;SDS011;3106;42.670;23.318;2022-08-19T02:51:19;16.33;;;9.50;;
6149;SDS011;3106;42.670;23.318;2022-08-19T02:53:48;14.10;;;8.47;;
6149;SDS011;3106;42.670;23.318;2022-08-19T02:56:16;12.70;;;8.37;;
6149;SDS011;3106;42.670;23.318;2022-08-19T02:58:44;16.50;;;9.60;;
6149;SDS011;3106;42.670;23.318;2022-08-19T03:01:18;16.50;;;9.27;;
6149;SDS011;3106;42.670;23.318;2022-08-19T03:03:46;16.53;;;8.47;;
6149;SDS011;3106;42.670;23.318;2022-08-19T03:06:14;10.00;;;8.60;;
6149;SDS011;3106;42.670;23.318;2022-08-19T03:08:44;18.33;;;9.10;;
6149;SDS011;3106;42.670;23.318;2022-08-19T03:11:14;18.77;;;9.50;;
6149;SDS011;3106;42.670;23.318;2022-08-19T03:13:42;16.03;;;9.13;;
6149;SDS011;3106;42.670;23.318;2022-08-19T03:16:10;14.83;;;10.03;;
6149;SDS011;3106;42.670;23.318;2022-08-19T03:18:38;17.87;;;8.73;;
6149;SDS011;3106;42.670;23.318;2022-08-19T03:21:06;13.50;;;9.83;;
6149;SDS011;3106;42.670;23.318;2022-08-19T03:23:34;15.27;;;9.50;;
6149;SDS011;3106;42.670;23.318;2022-08-19T03:26:04;18.40;;;10.03;;
6149;SDS011;3106;42.670;23.318;2022-08-19T03:28:32;15.17;;;9.33;;
6149;SDS011;3106;42.670;23.318;2022-08-19T03:31:00;15.50;;;9.63;;
6149;SDS011;3106;42.670;23.318;2022-08-19T03:33:28;12.03;;;9.10;;
6149;SDS011;3106;42.670;23.318;2022-08-19T03:36:04;16.90;;;9.70;;
6149;SDS011;3106;42.670;23.318;2022-08-19T03:38:34;14.87;;;8.40;;
6149;SDS011;3106;42.670;23.318;2022-08-19T03:41:04;12.73;;;9.50;;
6149;SDS011;3106;42.670;23.318;2022-08-19T03:43:33;18.73;;;10.13;;
6149;SDS011;3106;42.670;23.318;2022-08-19T03:46:02;14.80;;;9.67;;
6149;SDS011;3106;42.670;23.318;2022-08-19T03:48:31;19.77;;;10.30;;
6149;SDS011;3106;42.670;23.318;2022-08-19T03:50:59;17.30;;;10.30;;
6149;SDS011;3106;42.670;23.318;2022-08-19T03:53:27;15.97;;;9.20;;
6149;SDS011;3106;42.670;23.318;2022-08-19T03:55:56;17.47;;;9.33;;
6149;SDS011;3106;42.670;23.318;2022-08-19T03:58:26;14.97;;;10.30;;
6149;SDS011;3106;42.670;23.318;2022-08-19T04:00:54;26.17;;;10.03;;
6149;SDS011;3106;42.670;23.318;2022-08-19T04:03:23;15.03;;;10.17;;
6149;SDS011;3106;42.670;23.318;2022-08-19T04:05:51;22.10;;;10.37;;
6149;SDS011;3106;42.670;23.318;2022-08-19T04:08:18;19.80;;;9.90;;
6149;SDS011;3106;42.670;23.318;2022-08-19T04:10:47;16.13;;;10.23;;
6149;SDS011;3106;42.670;23.318;2022-08-19T04:13:16;16.00;;;9.43;;
6149;SDS011;3106;42.670;23.318;2022-08-19T04:15:45;18.40;;;10.90;;
6149;SDS011;3106;42.670;23.318;2022-08-19T04:18:13;16.50;;;10.07;;
6149;SDS011;3106;42.670;23.318;2022-08-19T04:20:45;21.27;;;9.27;;
6149;SDS011;3106;42.670;23.318;2022-08-19T04:23:14;18.60;;;11.03;;
6149;SDS011;3106;42.670;23.318;2022-08-19T04:25:42;16.73;;;10.00;;
6149;SDS011;3106;42.670;23.318;2022-08-19T04:28:11;16.13;;;10.40;;
6149;SDS011;3106;42.670;23.318;2022-08-19T04:30:41;21.30;;;10.63;;
6149;SDS011;3106;42.670;23.318;2022-08-19T04:33:12;22.63;;;10.07;;
6149;SDS011;3106;42.670;23.318;2022-08-19T04:35:42;16.40;;;9.63;;
6149;SDS011;3106;42.670;23.318;2022-08-19T04:38:11;19.40;;;10.47;;
6149;SDS011;3106;42.670;23.318;2022-08-19T04:40:39;15.80;;;10.30;;
6149;SDS011;3106;42.670;23.318;2022-08-19T04:43:25;33.17;;;11.90;;
6149;SDS011;3106;42.670;23.318;2022-08-19T04:45:53;20.97;;;10.37;;
6149;SDS011;3106;42.670;23.318;2022-08-19T04:48:22;16.37;;;10.33;;
6149;SDS011;3106;42.670;23.318;2022-08-19T04:50:52;23.13;;;9.63;;
6149;SDS011;3106;42.670;23.318;2022-08-19T04:53:22;16.33;;;10.80;;
6149;SDS011;3106;42.670;23.318;2022-08-19T04:55:53;21.40;;;11.40;;
6149;SDS011;3106;42.670;23.318;2022-08-19T04:58:21;19.53;;;11.23;;
6149;SDS011;3106;42.670;23.318;2022-08-19T05:00:49;16.00;;;10.47;;
6149;SDS011;3106;42.670;23.318;2022-08-19T05:03:17;21.20;;;11.07;;
6149;SDS011;3106;42.670;23.318;2022-08-19T05:05:46;14.87;;;10.43;;
6149;SDS011;3106;42.670;23.318;2022-08-19T05:08:15;22.40;;;10.53;;
6149;SDS011;3106;42.670;23.318;2022-08-19T05:10:47;14.60;;;10.47;;
6149;SDS011;3106;42.670;23.318;2022-08-19T05:13:16;17.73;;;10.53;;
6149;SDS011;3106;42.670;23.318;2022-08-19T05:15:55;18.23;;;9.63;;
6149;SDS011;3106;42.670;23.318;2022-08-19T05:18:24;14.60;;;10.13;;
6149;SDS011;3106;42.670;23.318;2022-08-19T05:21:13;16.17;;;10.00;;
6149;SDS011;3106;42.670;23.318;2022-08-19T05:23:58;21.13;;;10.30;;
6149;SDS011;3106;42.670;23.318;2022-08-19T05:26:27;15.20;;;9.60;;
6149;SDS011;3106;42.670;23.318;2022-08-19T05:28:54;14.30;;;9.90;;
6149;SDS011;3106;42.670;23.318;2022-08-19T05:31:22;15.40;;;10.27;;
6149;SDS011;3106;42.670;23.318;2022-08-19T05:33:49;14.10;;;10.10;;
6149;SDS011;3106;42.670;23.318;2022-08-19T05:36:18;27.10;;;10.13;;
6149;SDS011;3106;42.670;23.318;2022-08-19T05:38:46;16.20;;;10.70;;
6149;SDS011;3106;42.670;23.318;2022-08-19T05:41:15;14.10;;;10.63;;
6149;SDS011;3106;42.670;23.318;2022-08-19T05:43:42;19.40;;;11.63;;
6149;SDS011;3106;42.670;23.318;2022-08-19T05:46:13;22.57;;;10.60;;
6149;SDS011;3106;42.670;23.318;2022-08-19T05:48:44;25.57;;;14.40;;
6149;SDS011;3106;42.670;23.318;2022-08-19T05:51:12;18.37;;;11.50;;
6149;SDS011;3106;42.670;23.318;2022-08-19T05:53:43;18.00;;;11.00;;
6149;SDS011;3106;42.670;23.318;2022-08-19T05:56:11;21.63;;;11.43;;
6149;SDS011;3106;42.670;23.318;2022-08-19T05:58:41;20.87;;;11.40;;
6149;SDS011;3106;42.670;23.318;2022-08-19T06:01:11;14.13;;;10.13;;
6149;SDS011;3106;42.670;23.318;2022-08-19T06:03:54;13.10;;;9.60;;
6149;SDS011;3106;42.670;23.318;2022-08-19T06:06:22;16.87;;;9.70;;
6149;SDS011;3106;42.670;23.318;2022-08-19T06:08:54;31.00;;;14.57;;
6149;SDS011;3106;42.670;23.318;2022-08-19T06:11:36;22.10;;;11.13;;
6149;SDS011;3106;42.670;23.318;2022-08-19T06:14:05;16.30;;;10.47;;
6149;SDS011;3106;42.670;23.318;2022-08-19T06:16:34;14.07;;;9.47;;
6149;SDS011;3106;42.670;23.318;2022-08-19T06:19:14;13.80;;;9.37;;
6149;SDS011;3106;42.670;23.318;2022-08-19T06:21:44;25.20;;;10.77;;
6149;SDS011;3106;42.670;23.318;2022-08-19T06:24:15;13.37;;;9.63;;
6149;SDS011;3106;42.670;23.318;2022-08-19T06:26:48;14.30;;;9.47;;
6149;SDS011;3106;42.670;23.318;2022-08-19T06:29:16;15.47;;;9.57;;
6149;SDS011;3106;42.670;23.318;2022-08-19T06:31:44;12.80;;;9.27;;
6149;SDS011;3106;42.670;23.318;2022-08-19T06:34:14;19.10;;;10.03;;
6149;SDS011;3106;42.670;23.318;2022-08-19T06:36:44;25.73;;;9.53;;
6149;SDS011;3106;42.670;23.318;2022-08-19T06:39:16;20.10;;;9.03;;
6149;SDS011;3106;42.670;23.318;2022-08-19T06:41:45;22.57;;;9.00;;
6149;SDS011;3106;42.670;23.318;2022-08-19T06:44:14;12.53;;;9.30;;
6149;SDS011;3106;42.670;23.318;2022-08-19T06:46:41;14.43;;;9.20;;
6149;SDS011;3106;42.670;23.318;2022-08-19T06:49:10;16.53;;;9.20;;
6149;SDS011;3106;42.670;23.318;2022-08-19T06:51:39;15.37;;;9.60;;
6149;SDS011;3106;42.670;23.318;2022-08-19T06:54:06;13.03;;;9.57;;
6149;SDS011;3106;42.670;23.318;2022-08-19T06:56:38;17.90;;;9.80;;
6149;SDS011;3106;42.670;23.318;2022-08-19T07:04:14;19.43;;;11.57;;
6149;SDS011;3106;42.670;23.318;2022-08-19T07:06:43;14.93;;;11.33;;
6149;SDS011;3106;42.670;23.318;2022-08-19T07:09:12;21.63;;;11.60;;
6149;SDS011;3106;42.670;23.318;2022-08-19T07:11:49;29.00;;;11.20;;
6149;SDS011;3106;42.670;23.318;2022-08-19T07:14:32;19.20;;;11.10;;
6149;SDS011;3106;42.670;23.318;2022-08-19T07:17:02;17.80;;;10.40;;
6149;SDS011;3106;42.670;23.318;2022-08-19T07:19:31;20.43;;;11.30;;
6149;SDS011;3106;42.670;23.318;2022-08-19T07:21:58;16.00;;;10.07;;
6149;SDS011;3106;42.670;23.318;2022-08-19T07:24:28;18.43;;;10.17;;
6149;SDS011;3106;42.670;23.318;2022-08-19T07:29:57;18.37;;;10.57;;
6149;SDS011;3106;42.670;23.318;2022-08-19T07:32:24;14.47;;;9.23;;
6149;SDS011;3106;42.670;23.318;2022-08-19T07:34:52;21.33;;;10.90;;
6149;SDS011;3106;42.670;23.318;2022-08-19T07:37:19;19.93;;;10.93;;
6149;SDS011;3106;42.670;23.318;2022-08-19T07:39:48;26.47;;;9.43;;
6149;SDS011;3106;42.670;23.318;2022-08-19T07:42:16;29.93;;;9.90;;
6149;SDS011;3106;42.670;23.318;2022-08-19T07:44:56;17.33;;;9.30;;
6149;SDS011;3106;42.670;23.318;2022-08-19T07:47:28;12.63;;;9.40;;
6149;SDS011;3106;42.670;23.318;2022-08-19T07:49:57;16.03;;;9.33;;
6149;SDS011;3106;42.670;23.318;2022-08-19T07:52:26;17.93;;;9.50;;
6149;SDS011;3106;42.670;23.318;2022-08-19T07:55:08;16.63;;;9.60;;
6149;SDS011;3106;42.670;23.318;2022-08-19T07:57:46;16.93;;;8.80;;
6149;SDS011;3106;42.670;23.318;2022-08-19T09:07:38;8.67;;;7.10;;
6149;SDS011;3106;42.670;23.318;2022-08-19T09:10:21;12.27;;;7.10;;
6149;SDS011;3106;42.670;23.318;2022-08-19T09:12:57;15.47;;;6.37;;
6149;SDS011;3106;42.670;23.318;2022-08-19T09:15:34;14.70;;;5.93;;
6149;SDS011;3106;42.670;23.318;2022-08-19T09:18:08;6.83;;;6.13;;
6149;SDS011;3106;42.670;23.318;2022-08-19T09:20:41;15.00;;;6.77;;
6149;SDS011;3106;42.670;23.318;2022-08-19T09:23:10;7.43;;;6.07;;
6149;SDS011;3106;42.670;23.318;2022-08-19T09:25:38;6.40;;;4.97;;
6149;SDS011;3106;42.670;23.318;2022-08-19T09:28:07;5.90;;;4.90;;
6149;SDS011;3106;42.670;23.318;2022-08-19T09:30:39;13.60;;;5.33;;
6149;SDS011;3106;42.670;23.318;2022-08-19T09:38:55;7.60;;;5.10;;
6149;SDS011;3106;42.670;23.318;2022-08-19T09:41:37;7.73;;;5.00;;
6149;SDS011;3106;42.670;23.318;2022-08-19T12:33:18;10.07;;;6.70;;
6149;SDS011;3106;42.670;23.318;2022-08-19T12:35:49;9.90;;;6.97;;
6149;SDS011;3106;42.670;23.318;2022-08-19T18:37:03;16.23;;;6.60;;
6149;SDS011;3106;42.670;23.318;2022-08-19T18:39:34;12.87;;;6.67;;
6149;SDS011;3106;42.670;23.318;2022-08-19T18:42:19;12.97;;;7.33;;
6149;SDS011;3106;42.670;23.318;2022-08-19T18:45:11;15.47;;;6.90;;
6149;SDS011;3106;42.670;23.318;2022-08-19T18:47:56;17.73;;;7.50;;
6149;SDS011;3106;42.670;23.318;2022-08-19T18:50:41;14.70;;;7.20;;
6149;SDS011;3106;42.670;23.318;2022-08-19T18:53:13;18.50;;;7.23;;
6149;SDS011;3106;42.670;23.318;2022-08-19T18:55:48;12.27;;;7.00;;
6149;SDS011;3106;42.670;23.318;2022-08-19T19:14:14;10.77;;;8.57;;
6149;SDS011;3106;42.670;23.318;2022-08-19T19:16:58;18.40;;;7.77;;
6149;SDS011;3106;42.670;23.318;2022-08-19T19:19:42;15.17;;;7.47;;
6149;SDS011;3106;42.670;23.318;2022-08-19T19:22:23;16.17;;;8.10;;
6149;SDS011;3106;42.670;23.318;2022-08-19T19:27:39;16.20;;;8.23;;
6149;SDS011;3106;42.670;23.318;2022-08-19T19:30:09;8.60;;;6.90;;
6149;SDS011;3106;42.670;23.318;2022-08-19T19:32:37;10.73;;;7.50;;
6149;SDS011;3106;42.670;23.318;2022-08-19T19:35:05;12.57;;;7.43;;
6149;SDS011;3106;42.670;23.318;2022-08-19T19:37:35;10.20;;;8.23;;
6149;SDS011;3106;42.670;23.318;2022-08-19T19:40:09;8.67;;;7.27;;
6149;SDS011;3106;42.670;23.318;2022-08-19T19:42:40;11.80;;;8.10;;
6149;SDS011;3106;42.670;23.318;2022-08-19T19:45:07;16.90;;;8.90;;
6149;SDS011;3106;42.670;23.318;2022-08-19T19:47:35;11.27;;;8.10;;
6149;SDS011;3106;42.670;23.318;2022-08-19T19:50:02;14.50;;;7.43;;
6149;SDS011;3106;42.670;23.318;2022-08-19T19:52:29;15.33;;;7.30;;
6149;SDS011;3106;42.670;23.318;2022-08-19T19:54:56;13.30;;;8.80;;
6149;SDS011;3106;42.670;23.318;2022-08-19T19:57:24;16.63;;;9.60;;
6149;SDS011;3106;42.670;23.318;2022-08-19T19:59:54;16.80;;;8.90;;
6149;SDS011;3106;42.670;23.318;2022-08-19T20:02:22;17.90;;;11.50;;
6149;SDS011;3106;42.670;23.318;2022-08-19T20:04:50;18.83;;;12.17;;
6149;SDS011;3106;42.670;23.318;2022-08-19T20:07:22;17.70;;;9.70;;
6149;SDS011;3106;42.670;23.318;2022-08-19T20:10:10;25.23;;;9.50;;
6149;SDS011;3106;42.670;23.318;2022-08-19T20:12:37;13.23;;;9.13;;
6149;SDS011;3106;42.670;23.318;2022-08-19T20:15:06;19.33;;;9.53;;
6149;SDS011;3106;42.670;23.318;2022-08-19T20:17:35;12.27;;;8.60;;
6149;SDS011;3106;42.670;23.318;2022-08-19T20:20:07;38.10;;;9.37;;
6149;SDS011;3106;42.670;23.318;2022-08-19T20:25:10;15.80;;;8.03;;
6149;SDS011;3106;42.670;23.318;2022-08-19T20:27:54;21.33;;;8.10;;
6149;SDS011;3106;42.670;23.318;2022-08-19T20:36:17;15.10;;;9.40;;
6149;SDS011;3106;42.670;23.318;2022-08-19T20:38:51;24.47;;;9.53;;
6149;SDS011;3106;42.670;23.318;2022-08-19T20:41:29;15.90;;;8.63;;
6149;SDS011;3106;42.670;23.318;2022-08-19T20:43:59;14.00;;;9.00;;
6149;SDS011;3106;42.670;23.318;2022-08-19T20:46:42;17.70;;;9.73;;
6149;SDS011;3106;42.670;23.318;2022-08-19T20:49:13;15.70;;;10.23;;
6149;SDS011;3106;42.670;23.318;2022-08-19T20:54:39;16.60;;;9.53;;
6149;SDS011;3106;42.670;23.318;2022-08-19T20:57:07;12.40;;;8.23;;
6149;SDS011;3106;42.670;23.318;2022-08-19T20:59:46;16.47;;;10.00;;
6149;SDS011;3106;42.670;23.318;2022-08-19T21:02:13;17.47;;;8.40;;
6149;SDS011;3106;42.670;23.318;2022-08-19T21:04:49;16.73;;;9.07;;
6149;SDS011;3106;42.670;23.318;2022-08-19T21:07:33;18.03;;;9.37;;
6149;SDS011;3106;42.670;23.318;2022-08-19T21:10:07;18.27;;;10.20;;
6149;SDS011;3106;42.670;23.318;2022-08-19T21:13:10;11.77;;;8.63;;
6149;SDS011;3106;42.670;23.318;2022-08-19T21:15:41;15.93;;;9.63;;
6149;SDS011;3106;42.670;23.318;2022-08-19T21:18:23;14.87;;;9.17;;
6149;SDS011;3106;42.670;23.318;2022-08-19T21:21:06;15.57;;;9.30;;
6149;SDS011;3106;42.670;23.318;2022-08-19T21:26:47;14.27;;;8.53;;
6149;SDS011;3106;42.670;23.318;2022-08-19T21:29:14;8.57;;;7.63;;
6149;SDS011;3106;42.670;23.318;2022-08-19T21:31:44;13.73;;;8.27;;
6149;SDS011;3106;42.670;23.318;2022-08-19T21:34:28;11.93;;;8.80;;
6149;SDS011;3106;42.670;23.318;2022-08-19T21:37:08;12.80;;;7.93;;
6149;SDS011;3106;42.670;23.318;2022-08-19T21:49:12;11.13;;;7.80;;
6149;SDS011;3106;42.670;23.318;2022-08-19T21:51:53;12.47;;;7.80;;
6149;SDS011;3106;42.670;23.318;2022-08-19T21:54:37;15.43;;;8.70;;
6149;SDS011;3106;42.670;23.318;2022-08-19T21:57:15;12.17;;;8.60;;
6149;SDS011;3106;42.670;23.318;2022-08-19T21:59:52;11.90;;;7.90;;
6149;SDS011;3106;42.670;23.318;2022-08-19T22:02:23;11.10;;;8.37;;
6149;SDS011;3106;42.670;23.318;2022-08-19T22:04:52;14.23;;;8.97;;
6149;SDS011;3106;42.670;23.318;2022-08-19T22:07:20;11.43;;;8.53;;
6149;SDS011;3106;42.670;23.318;2022-08-19T22:09:49;11.30;;;8.30;;
6149;SDS011;3106;42.670;23.318;2022-08-19T22:12:20;12.10;;;6.87;;
6149;SDS011;3106;42.670;23.318;2022-08-19T22:14:50;10.80;;;7.70;;
6149;SDS011;3106;42.670;23.318;2022-08-19T22:17:19;9.93;;;7.67;;
6149;SDS011;3106;42.670;23.318;2022-08-19T22:22:44;9.43;;;7.50;;
6149;SDS011;3106;42.670;23.318;2022-08-19T22:25:31;11.27;;;7.10;;
6149;SDS011;3106;42.670;23.318;2022-08-19T22:28:05;10.40;;;7.50;;
6149;SDS011;3106;42.670;23.318;2022-08-19T22:30:47;12.90;;;7.47;;
6149;SDS011;3106;42.670;23.318;2022-08-19T22:33:20;14.03;;;8.33;;
6149;SDS011;3106;42.670;23.318;2022-08-19T22:41:53;12.23;;;7.00;;
6149;SDS011;3106;42.670;23.318;2022-08-19T22:44:24;8.20;;;7.33;;
6149;SDS011;3106;42.670;23.318;2022-08-19T22:47:06;12.20;;;7.40;;
6149;SDS011;3106;42.670;23.318;2022-08-19T22:49:34;9.70;;;6.70;;
6149;SDS011;3106;42.670;23.318;2022-08-19T22:52:16;9.83;;;7.00;;
6149;SDS011;3106;42.670;23.318;2022-08-19T23:00:59;8.70;;;7.70;;
6149;SDS011;3106;42.670;23.318;2022-08-19T23:03:40;10.60;;;7.33;;
6149;SDS011;3106;42.670;23.318;2022-08-19T23:06:10;10.07;;;7.70;;
6149;SDS011;3106;42.670;23.318;2022-08-19T23:08:52;13.43;;;7.60;;
6149;SDS011;3106;42.670;23.318;2022-08-19T23:11:24;11.03;;;8.00;;
6149;SDS011;3106;42.670;23.318;2022-08-19T23:17:06;9.57;;;7.27;;
6149;SDS011;3106;42.670;23.318;2022-08-19T23:19:38;9.80;;;6.87;;
6149;SDS011;3106;42.670;23.318;2022-08-19T23:22:21;10.00;;;7.27;;
6149;SDS011;3106;42.670;23.318;2022-08-19T23:25:03;18.00;;;8.20;;
6149;SDS011;3106;42.670;23.318;2022-08-19T23:28:08;8.30;;;7.20;;
6149;SDS011;3106;42.670;23.318;2022-08-19T23:30:52;13.37;;;8.20;;
6149;SDS011;3106;42.670;23.318;2022-08-19T23:36:32;13.40;;;7.60;;
6149;SDS011;3106;42.670;23.318;2022-08-19T23:39:04;11.57;;;7.00;;
6149;SDS011;3106;42.670;23.318;2022-08-19T23:41:45;10.33;;;6.87;;
6149;SDS011;3106;42.670;23.318;2022-08-19T23:44:15;10.73;;;7.70;;
6149;SDS011;3106;42.670;23.318;2022-08-19T23:46:44;13.67;;;7.40;;
6149;SDS011;3106;42.670;23.318;2022-08-19T23:49:44;13.30;;;7.20;;
6149;SDS011;3106;42.670;23.318;2022-08-19T23:52:25;19.43;;;7.80;;
6149;SDS011;3106;42.670;23.318;2022-08-19T23:55:06;9.80;;;7.13;;
6149;SDS011;3106;42.670;23.318;2022-08-19T23:57:43;15.20;;;8.20;;
